Time;durP1;ratioP1;P1;durP2;ratioP2;P2;SDS_P1;SDS_P2;PMS_P1;PMS_P2;Temp;Humidity;BMP_temperature;BMP_pressure;BME280_temperature;BME280_humidity;BME280_pressure;Samples;Min_cycle;Max_cycle;Signal;HPM_P1;HPM_P2
2021/04/27 00:02:33;;;;;;;1.58;1.10;;;;;;;19.47;41.11;99855.23;;;;-60
2021/04/27 00:05:33;;;;;;;1.20;1.10;;;;;;;19.46;41.12;99855.63;;;;-60
2021/04/27 00:08:34;;;;;;;1.61;1.10;;;;;;;19.45;41.08;99848.91;;;;-59
2021/04/27 00:11:33;;;;;;;1.34;1.20;;;;;;;19.44;41.07;99847.59;;;;-59
2021/04/27 00:14:33;;;;;;;1.51;1.20;;;;;;;19.43;41.09;99844.12;;;;-59
2021/04/27 00:17:33;;;;;;;1.19;1.08;;;;;;;19.41;41.12;99839.73;;;;-60
2021/04/27 00:20:33;;;;;;;1.71;1.11;;;;;;;19.40;41.12;99834.95;;;;-59
2021/04/27 00:23:33;;;;;;;1.17;1.11;;;;;;;19.39;41.13;99829.10;;;;-59
2021/04/27 00:26:33;;;;;;;1.19;1.10;;;;;;;19.38;41.11;99827.48;;;;-59
2021/04/27 00:29:33;;;;;;;1.32;1.15;;;;;;;19.37;41.11;99819.84;;;;-59
2021/04/27 00:32:33;;;;;;;1.37;1.20;;;;;;;19.36;41.13;99822.05;;;;-59
2021/04/27 00:35:33;;;;;;;1.20;1.10;;;;;;;19.35;41.11;99819.36;;;;-59
2021/04/27 00:38:33;;;;;;;1.20;1.10;;;;;;;19.34;41.11;99819.27;;;;-59
2021/04/27 00:41:33;;;;;;;1.31;1.20;;;;;;;19.33;41.15;99818.72;;;;-61
2021/04/27 00:44:33;;;;;;;1.21;1.10;;;;;;;19.31;41.11;99812.38;;;;-60
2021/04/27 00:47:35;;;;;;;1.20;1.10;;;;;;;19.30;41.11;99812.08;;;;-59
2021/04/27 00:50:33;;;;;;;1.11;1.07;;;;;;;19.29;41.12;99809.14;;;;-59
2021/04/27 00:53:33;;;;;;;1.22;1.12;;;;;;;19.28;41.07;99804.66;;;;-59
2021/04/27 00:56:33;;;;;;;1.02;1.02;;;;;;;19.27;41.09;99803.05;;;;-60
2021/04/27 00:59:33;;;;;;;1.20;1.00;;;;;;;19.26;41.11;99801.12;;;;-62
2021/04/27 01:02:34;;;;;;;1.22;1.12;;;;;;;19.25;41.02;99799.08;;;;-62
2021/04/27 01:05:33;;;;;;;1.19;1.09;;;;;;;19.24;41.15;99801.77;;;;-61
2021/04/27 01:08:33;;;;;;;1.18;1.15;;;;;;;19.23;41.08;99796.41;;;;-62
2021/04/27 01:11:33;;;;;;;1.30;1.20;;;;;;;19.22;41.09;99795.36;;;;-61
2021/04/27 01:14:33;;;;;;;1.29;1.19;;;;;;;19.22;41.11;99802.44;;;;-59
2021/04/27 01:17:33;;;;;;;1.28;1.18;;;;;;;19.21;41.07;99789.75;;;;-59
2021/04/27 01:20:33;;;;;;;1.22;1.12;;;;;;;19.20;41.04;99787.56;;;;-59
2021/04/27 01:23:33;;;;;;;1.01;1.01;;;;;;;19.20;41.10;99781.98;;;;-60
2021/04/27 01:26:33;;;;;;;1.11;1.07;;;;;;;19.18;41.06;99781.16;;;;-59
2021/04/27 01:29:34;;;;;;;1.19;1.13;;;;;;;19.17;41.06;99779.22;;;;-59
2021/04/27 01:32:33;;;;;;;1.15;1.10;;;;;;;19.17;41.08;99773.60;;;;-59
2021/04/27 01:35:33;;;;;;;1.21;1.11;;;;;;;19.15;41.10;99774.58;;;;-59
2021/04/27 01:38:33;;;;;;;1.30;1.20;;;;;;;19.15;41.09;99768.25;;;;-59
2021/04/27 01:41:33;;;;;;;1.17;1.07;;;;;;;19.14;41.10;99770.38;;;;-58
2021/04/27 01:44:33;;;;;;;1.15;1.11;;;;;;;19.13;41.09;99765.49;;;;-59
2021/04/27 01:47:33;;;;;;;1.51;1.10;;;;;;;19.12;41.09;99770.55;;;;-59
2021/04/27 01:50:33;;;;;;;0.90;0.90;;;;;;;19.11;41.08;99774.52;;;;-60
2021/04/27 01:53:33;;;;;;;1.02;1.02;;;;;;;19.10;41.08;99775.98;;;;-59
2021/04/27 01:56:33;;;;;;;1.27;1.17;;;;;;;19.10;41.05;99772.33;;;;-59
2021/04/27 01:59:33;;;;;;;1.35;1.09;;;;;;;19.09;41.09;99771.02;;;;-60
2021/04/27 02:02:33;;;;;;;1.24;1.11;;;;;;;19.08;41.03;99769.09;;;;-59
2021/04/27 02:05:33;;;;;;;1.15;1.09;;;;;;;19.07;41.07;99766.40;;;;-60
2021/04/27 02:08:33;;;;;;;1.17;1.11;;;;;;;19.06;41.05;99765.93;;;;-60
2021/04/27 02:11:33;;;;;;;1.29;1.19;;;;;;;19.06;41.04;99764.87;;;;-59
2021/04/27 02:14:33;;;;;;;1.19;1.10;;;;;;;19.05;41.01;99763.32;;;;-59
2021/04/27 02:17:33;;;;;;;1.19;1.10;;;;;;;19.04;41.01;99768.36;;;;-58
2021/04/27 02:20:33;;;;;;;1.16;1.07;;;;;;;19.03;41.01;99777.73;;;;-59
2021/04/27 02:23:33;;;;;;;1.29;1.19;;;;;;;19.03;41.04;99775.50;;;;-59
2021/04/27 02:26:33;;;;;;;1.15;1.08;;;;;;;19.02;41.07;99775.53;;;;-59
2021/04/27 02:29:33;;;;;;;2.75;1.19;;;;;;;19.01;41.02;99776.81;;;;-60
2021/04/27 02:32:33;;;;;;;1.27;1.10;;;;;;;19.01;41.04;99781.63;;;;-60
2021/04/27 02:35:33;;;;;;;1.25;1.15;;;;;;;19.00;41.05;99776.66;;;;-61
2021/04/27 02:38:33;;;;;;;1.21;1.10;;;;;;;18.99;41.05;99776.44;;;;-61
2021/04/27 02:41:33;;;;;;;1.14;1.10;;;;;;;18.98;41.15;99785.84;;;;-61
2021/04/27 02:44:33;;;;;;;1.17;1.10;;;;;;;18.97;41.03;99783.34;;;;-59
2021/04/27 02:47:33;;;;;;;1.01;1.01;;;;;;;18.97;41.05;99780.09;;;;-61
2021/04/27 02:50:33;;;;;;;1.25;1.15;;;;;;;18.96;41.04;99782.52;;;;-59
2021/04/27 02:53:33;;;;;;;1.19;1.10;;;;;;;18.96;41.07;99776.27;;;;-61
2021/04/27 02:56:33;;;;;;;1.27;1.17;;;;;;;18.95;41.06;99776.20;;;;-59
2021/04/27 02:59:33;;;;;;;1.05;1.03;;;;;;;18.94;41.05;99774.40;;;;-59
2021/04/27 03:02:33;;;;;;;1.03;1.03;;;;;;;18.94;41.11;99774.81;;;;-61
2021/04/27 03:05:33;;;;;;;1.27;1.09;;;;;;;18.93;41.08;99776.29;;;;-60
2021/04/27 03:08:33;;;;;;;1.75;1.10;;;;;;;18.92;41.09;99778.45;;;;-59
2021/04/27 03:11:33;;;;;;;1.19;1.09;;;;;;;18.91;41.07;99776.52;;;;-61
2021/04/27 03:14:33;;;;;;;1.00;1.00;;;;;;;18.90;41.10;99778.30;;;;-61
2021/04/27 03:17:33;;;;;;;1.65;1.07;;;;;;;18.90;41.08;99781.39;;;;-61
2021/04/27 03:20:33;;;;;;;1.17;1.04;;;;;;;18.89;41.11;99780.27;;;;-61
2021/04/27 03:23:33;;;;;;;1.07;0.98;;;;;;;18.89;41.11;99779.05;;;;-61
2021/04/27 03:26:33;;;;;;;1.05;1.03;;;;;;;18.88;41.08;99782.20;;;;-61
2021/04/27 03:29:33;;;;;;;1.23;1.13;;;;;;;18.88;41.07;99775.81;;;;-62
2021/04/27 03:32:33;;;;;;;1.15;1.05;;;;;;;18.87;41.11;99775.16;;;;-61
2021/04/27 03:35:33;;;;;;;1.35;1.23;;;;;;;18.87;41.15;99775.73;;;;-61
2021/04/27 03:38:33;;;;;;;1.27;1.10;;;;;;;18.86;41.10;99775.80;;;;-61
2021/04/27 03:41:33;;;;;;;1.10;1.10;;;;;;;18.85;41.10;99776.45;;;;-62
2021/04/27 03:44:33;;;;;;;1.19;1.09;;;;;;;18.85;41.01;99775.65;;;;-62
2021/04/27 03:47:33;;;;;;;1.37;1.19;;;;;;;18.85;41.11;99777.11;;;;-61
2021/04/27 03:50:33;;;;;;;1.08;1.04;;;;;;;18.84;41.10;99776.28;;;;-62
2021/04/27 03:53:33;;;;;;;1.29;1.19;;;;;;;18.84;41.09;99771.82;;;;-61
2021/04/27 03:56:33;;;;;;;1.07;1.07;;;;;;;18.83;41.06;99771.10;;;;-61
2021/04/27 03:59:33;;;;;;;1.02;1.01;;;;;;;18.82;41.10;99771.58;;;;-61
2021/04/27 04:02:33;;;;;;;1.25;1.11;;;;;;;18.82;41.08;99775.08;;;;-60
2021/04/27 04:05:33;;;;;;;1.16;1.07;;;;;;;18.81;41.14;99777.77;;;;-61
2021/04/27 04:08:35;;;;;;;1.12;1.10;;;;;;;18.80;41.12;99771.18;;;;-61
2021/04/27 04:11:33;;;;;;;1.09;1.09;;;;;;;18.80;41.12;99772.83;;;;-61
2021/04/27 04:14:33;;;;;;;1.15;1.10;;;;;;;18.79;41.15;99774.35;;;;-61
2021/04/27 04:17:33;;;;;;;1.25;1.01;;;;;;;18.78;41.17;99777.83;;;;-61
2021/04/27 04:20:33;;;;;;;1.17;1.07;;;;;;;18.78;41.11;99777.50;;;;-61
2021/04/27 04:23:33;;;;;;;1.11;1.06;;;;;;;18.77;41.09;99779.36;;;;-61
2021/04/27 04:26:33;;;;;;;1.10;1.08;;;;;;;18.77;41.11;99770.77;;;;-61
2021/04/27 04:29:33;;;;;;;1.27;1.10;;;;;;;18.76;41.16;99771.88;;;;-61
2021/04/27 04:32:33;;;;;;;1.21;1.13;;;;;;;18.76;41.10;99774.48;;;;-61
2021/04/27 04:35:33;;;;;;;1.08;1.03;;;;;;;18.75;41.12;99774.91;;;;-61
2021/04/27 04:38:33;;;;;;;1.27;1.17;;;;;;;18.74;41.15;99780.81;;;;-61
2021/04/27 04:41:33;;;;;;;1.08;1.05;;;;;;;18.74;41.15;99780.48;;;;-60
2021/04/27 04:44:33;;;;;;;1.14;1.09;;;;;;;18.73;41.09;99779.20;;;;-61
2021/04/27 04:47:33;;;;;;;1.01;1.01;;;;;;;18.73;41.09;99781.23;;;;-61
2021/04/27 04:50:33;;;;;;;1.18;1.10;;;;;;;18.73;41.09;99785.54;;;;-61
2021/04/27 04:53:33;;;;;;;1.17;1.09;;;;;;;18.71;41.12;99784.72;;;;-61
2021/04/27 04:56:33;;;;;;;1.97;1.09;;;;;;;18.71;41.08;99787.81;;;;-60
2021/04/27 04:59:33;;;;;;;1.21;1.11;;;;;;;18.70;41.05;99786.77;;;;-62
2021/04/27 05:02:33;;;;;;;1.19;1.09;;;;;;;18.70;41.04;99786.28;;;;-61
2021/04/27 05:05:33;;;;;;;1.09;1.09;;;;;;;18.69;41.08;99784.23;;;;-61
2021/04/27 05:08:41;;;;;;;1.03;1.03;;;;;;;18.68;41.09;99787.91;;;;-61
2021/04/27 05:11:33;;;;;;;1.16;1.07;;;;;;;18.67;41.08;99786.27;;;;-61
2021/04/27 05:14:33;;;;;;;2.26;1.22;;;;;;;18.68;41.04;99779.38;;;;-62
2021/04/27 05:17:33;;;;;;;1.00;1.00;;;;;;;18.67;41.09;99784.97;;;;-61
2021/04/27 05:20:33;;;;;;;1.22;1.12;;;;;;;18.67;41.06;99780.98;;;;-61
2021/04/27 05:23:33;;;;;;;1.16;1.06;;;;;;;18.68;41.16;99785.72;;;;-61
2021/04/27 05:26:33;;;;;;;1.14;1.07;;;;;;;18.69;41.09;99784.80;;;;-61
2021/04/27 05:29:33;;;;;;;1.01;1.00;;;;;;;18.71;41.15;99788.37;;;;-61
2021/04/27 05:32:33;;;;;;;1.21;1.11;;;;;;;18.71;41.18;99782.36;;;;-61
2021/04/27 05:35:33;;;;;;;0.95;0.95;;;;;;;18.73;41.12;99786.11;;;;-61
2021/04/27 05:38:33;;;;;;;1.07;1.05;;;;;;;18.76;41.13;99790.88;;;;-61
2021/04/27 05:41:33;;;;;;;1.20;1.10;;;;;;;18.76;41.17;99793.73;;;;-61
2021/04/27 05:44:33;;;;;;;1.15;1.07;;;;;;;18.80;41.12;99793.17;;;;-61
2021/04/27 05:47:33;;;;;;;1.09;1.01;;;;;;;18.82;41.13;99789.60;;;;-61
2021/04/27 05:50:33;;;;;;;1.14;1.10;;;;;;;18.85;41.12;99798.70;;;;-61
2021/04/27 05:53:33;;;;;;;1.13;1.08;;;;;;;18.88;41.10;99793.25;;;;-61
2021/04/27 05:56:33;;;;;;;1.31;1.21;;;;;;;18.89;41.17;99791.23;;;;-61
2021/04/27 05:59:33;;;;;;;1.28;1.18;;;;;;;18.90;41.17;99788.04;;;;-61
2021/04/27 06:02:33;;;;;;;1.09;1.09;;;;;;;18.92;41.10;99793.97;;;;-61
2021/04/27 06:05:33;;;;;;;0.99;0.99;;;;;;;18.93;41.13;99787.64;;;;-61
2021/04/27 06:08:33;;;;;;;1.13;1.05;;;;;;;18.94;41.15;99798.11;;;;-61
2021/04/27 06:11:33;;;;;;;1.11;1.09;;;;;;;18.95;41.19;99792.27;;;;-61
2021/04/27 06:14:33;;;;;;;1.35;1.10;;;;;;;18.96;41.16;99796.55;;;;-61
2021/04/27 06:17:35;;;;;;;1.00;1.00;;;;;;;18.97;41.13;99795.77;;;;-61
2021/04/27 06:20:33;;;;;;;1.01;1.01;;;;;;;18.97;41.16;99791.30;;;;-60
2021/04/27 06:23:33;;;;;;;1.21;1.09;;;;;;;18.98;41.16;99783.96;;;;-61
2021/04/27 06:26:33;;;;;;;1.24;1.14;;;;;;;18.98;41.12;99783.72;;;;-61
2021/04/27 06:29:33;;;;;;;1.37;1.11;;;;;;;18.98;41.04;99782.98;;;;-61
2021/04/27 06:32:33;;;;;;;1.06;1.06;;;;;;;18.98;41.13;99784.45;;;;-60
2021/04/27 06:35:33;;;;;;;1.11;1.03;;;;;;;19.00;41.09;99787.39;;;;-60
2021/04/27 06:38:33;;;;;;;1.08;1.05;;;;;;;19.00;41.04;99787.14;;;;-61
2021/04/27 06:41:33;;;;;;;1.25;1.14;;;;;;;19.00;41.09;99785.42;;;;-61
2021/04/27 06:44:33;;;;;;;0.99;0.99;;;;;;;19.01;41.10;99787.37;;;;-61
2021/04/27 06:47:33;;;;;;;1.18;1.08;;;;;;;19.01;41.11;99786.23;;;;-61
2021/04/27 06:50:33;;;;;;;1.23;1.13;;;;;;;19.00;41.07;99786.23;;;;-61
2021/04/27 06:53:33;;;;;;;1.23;1.13;;;;;;;19.00;41.00;99785.67;;;;-61
2021/04/27 06:56:33;;;;;;;1.20;1.10;;;;;;;18.99;41.16;99784.88;;;;-61
2021/04/27 06:59:33;;;;;;;1.05;1.05;;;;;;;18.99;41.15;99787.55;;;;-61
2021/04/27 07:02:33;;;;;;;1.09;1.06;;;;;;;19.00;41.08;99796.38;;;;-61
2021/04/27 07:05:33;;;;;;;1.15;1.10;;;;;;;18.98;41.16;99794.77;;;;-52
2021/04/27 07:08:33;;;;;;;2.02;1.19;;;;;;;19.00;41.25;99789.16;;;;-54
2021/04/27 07:11:33;;;;;;;2.39;1.40;;;;;;;19.01;40.55;99789.64;;;;-53
2021/04/27 07:14:33;;;;;;;1.71;1.35;;;;;;;19.01;40.04;99793.38;;;;-57
2021/04/27 07:17:33;;;;;;;2.92;1.52;;;;;;;19.02;40.33;99791.34;;;;-53
2021/04/27 07:20:33;;;;;;;2.58;1.50;;;;;;;19.06;39.96;99789.23;;;;-49
2021/04/27 07:23:33;;;;;;;2.67;1.44;;;;;;;19.09;40.00;99789.13;;;;-49
2021/04/27 07:26:33;;;;;;;2.34;1.34;;;;;;;19.11;40.24;99793.91;;;;-50
2021/04/27 07:29:33;;;;;;;3.43;1.37;;;;;;;19.15;40.41;99795.85;;;;-50
2021/04/27 07:32:33;;;;;;;1.53;1.20;;;;;;;19.18;40.54;99789.84;;;;-50
2021/04/27 07:35:33;;;;;;;1.52;1.36;;;;;;;19.21;40.56;99793.00;;;;-49
2021/04/27 07:38:33;;;;;;;1.37;1.27;;;;;;;19.23;40.57;99790.96;;;;-50
2021/04/27 07:41:33;;;;;;;1.63;1.37;;;;;;;19.27;40.62;99790.39;;;;-50
2021/04/27 07:44:33;;;;;;;3.94;1.43;;;;;;;19.34;41.10;99788.50;;;;-53
2021/04/27 07:47:33;;;;;;;1.83;1.27;;;;;;;19.37;41.65;99789.13;;;;-51
2021/04/27 07:50:33;;;;;;;1.85;1.29;;;;;;;19.43;41.97;99789.19;;;;-52
2021/04/27 07:53:33;;;;;;;2.02;1.27;;;;;;;19.47;42.02;99792.58;;;;-49
2021/04/27 07:56:34;;;;;;;1.35;1.25;;;;;;;19.52;42.42;99792.64;;;;-50
2021/04/27 07:59:33;;;;;;;2.99;1.41;;;;;;;19.56;41.99;99794.09;;;;-50
2021/04/27 08:02:33;;;;;;;4.49;1.52;;;;;;;19.59;41.73;99790.75;;;;-50
2021/04/27 08:05:33;;;;;;;4.05;1.26;;;;;;;19.63;41.92;99796.88;;;;-56
2021/04/27 08:08:33;;;;;;;1.84;1.37;;;;;;;19.68;42.12;99791.99;;;;-52
2021/04/27 08:11:33;;;;;;;1.74;1.41;;;;;;;19.71;42.03;99786.22;;;;-48
2021/04/27 08:14:33;;;;;;;2.57;1.45;;;;;;;19.77;42.45;99786.35;;;;-48
2021/04/27 08:17:34;;;;;;;1.61;1.34;;;;;;;19.81;42.52;99782.35;;;;-57
2021/04/27 08:20:33;;;;;;;1.52;1.39;;;;;;;19.83;42.02;99783.55;;;;-54
2021/04/27 08:23:35;;;;;;;2.04;1.37;;;;;;;19.87;42.37;99780.77;;;;-50
2021/04/27 08:26:33;;;;;;;2.11;1.33;;;;;;;19.92;42.43;99776.83;;;;-52
2021/04/27 08:29:33;;;;;;;1.76;1.33;;;;;;;19.95;42.19;99768.69;;;;-49
2021/04/27 08:32:33;;;;;;;1.41;1.31;;;;;;;19.95;41.78;99768.69;;;;-55
2021/04/27 08:35:33;;;;;;;2.75;1.41;;;;;;;20.01;42.43;99765.89;;;;-51
2021/04/27 08:38:33;;;;;;;1.78;1.24;;;;;;;20.05;42.02;99759.94;;;;-52
2021/04/27 08:41:33;;;;;;;2.34;1.34;;;;;;;20.08;41.88;99760.61;;;;-55
2021/04/27 08:44:33;;;;;;;1.49;1.31;;;;;;;20.14;42.38;99758.06;;;;-55
2021/04/27 08:47:33;;;;;;;1.54;1.29;;;;;;;20.16;42.07;99755.75;;;;-54
2021/04/27 08:50:33;;;;;;;1.30;1.20;;;;;;;20.20;42.15;99754.59;;;;-52
2021/04/27 08:53:33;;;;;;;2.71;1.31;;;;;;;20.24;42.08;99748.63;;;;-52
2021/04/27 08:56:33;;;;;;;2.71;1.27;;;;;;;20.29;42.21;99745.98;;;;-55
2021/04/27 08:59:33;;;;;;;1.91;1.31;;;;;;;20.28;41.99;99748.75;;;;-52
2021/04/27 09:02:33;;;;;;;1.40;1.26;;;;;;;20.29;42.03;99746.38;;;;-54
2021/04/27 09:05:33;;;;;;;1.50;1.40;;;;;;;20.31;42.12;99744.00;;;;-58
2021/04/27 09:08:33;;;;;;;1.59;1.37;;;;;;;20.35;41.95;99737.62;;;;-54
2021/04/27 09:11:33;;;;;;;1.78;1.35;;;;;;;20.37;42.22;99731.91;;;;-53
2021/04/27 09:14:33;;;;;;;1.73;1.35;;;;;;;20.39;42.08;99736.28;;;;-51
2021/04/27 09:17:33;;;;;;;1.67;1.18;;;;;;;20.40;42.06;99733.34;;;;-53
2021/04/27 09:20:33;;;;;;;1.57;1.30;;;;;;;20.40;42.07;99729.59;;;;-44
2021/04/27 09:23:33;;;;;;;2.30;1.29;;;;;;;20.42;42.06;99729.03;;;;-53
2021/04/27 09:26:33;;;;;;;2.14;1.31;;;;;;;20.42;42.10;99727.41;;;;-50
2021/04/27 09:29:33;;;;;;;1.49;1.27;;;;;;;20.45;42.11;99723.04;;;;-48
2021/04/27 09:32:33;;;;;;;2.00;1.44;;;;;;;20.45;41.93;99720.92;;;;-50
2021/04/27 09:35:33;;;;;;;2.15;1.40;;;;;;;20.48;41.95;99719.19;;;;-50
2021/04/27 09:38:33;;;;;;;2.05;1.30;;;;;;;20.45;41.48;99712.15;;;;-50
2021/04/27 09:41:33;;;;;;;2.69;1.35;;;;;;;20.45;41.48;99709.55;;;;-51
2021/04/27 09:44:33;;;;;;;5.21;1.60;;;;;;;20.40;40.59;99707.24;;;;-59
2021/04/27 09:47:37;;;;;;;2.32;1.65;;;;;;;20.34;38.95;99706.80;;;;-54
2021/04/27 09:50:33;;;;;;;4.87;1.61;;;;;;;20.33;39.27;99699.80;;;;-55
2021/04/27 09:53:33;;;;;;;3.62;1.63;;;;;;;20.33;39.85;99700.37;;;;-56
2021/04/27 09:56:33;;;;;;;4.18;1.57;;;;;;;20.33;39.84;99690.04;;;;-48
2021/04/27 09:59:37;;;;;;;5.76;1.83;;;;;;;20.29;39.88;99685.27;;;;-50
2021/04/27 10:02:33;;;;;;;4.79;1.65;;;;;;;20.27;39.68;99680.58;;;;-49
2021/04/27 10:05:33;;;;;;;2.70;1.54;;;;;;;20.26;39.65;99676.13;;;;-53
2021/04/27 10:08:33;;;;;;;4.56;1.78;;;;;;;20.24;39.52;99674.75;;;;-52
2021/04/27 10:11:33;;;;;;;3.75;1.57;;;;;;;20.27;39.62;99666.50;;;;-48
2021/04/27 10:14:33;;;;;;;4.67;1.69;;;;;;;20.29;39.85;99661.75;;;;-48
2021/04/27 10:17:33;;;;;;;2.95;1.63;;;;;;;20.32;39.94;99657.19;;;;-51
2021/04/27 10:20:33;;;;;;;2.16;1.41;;;;;;;20.33;40.00;99654.64;;;;-52
2021/04/27 10:23:33;;;;;;;2.94;1.65;;;;;;;20.34;40.07;99648.14;;;;-52
2021/04/27 10:26:33;;;;;;;4.33;1.45;;;;;;;20.33;40.08;99641.96;;;;-49
2021/04/27 10:29:33;;;;;;;1.71;1.35;;;;;;;20.33;40.12;99642.51;;;;-50
2021/04/27 10:32:33;;;;;;;3.49;1.51;;;;;;;20.34;40.18;99632.44;;;;-50
2021/04/27 10:35:33;;;;;;;3.05;1.50;;;;;;;20.34;40.19;99627.23;;;;-52
2021/04/27 10:38:33;;;;;;;2.83;1.62;;;;;;;20.34;40.18;99620.48;;;;-51
2021/04/27 10:41:33;;;;;;;2.37;1.60;;;;;;;20.34;40.14;99616.81;;;;-52
2021/04/27 10:44:33;;;;;;;1.82;1.49;;;;;;;20.35;40.19;99609.86;;;;-48
2021/04/27 10:47:33;;;;;;;1.81;1.39;;;;;;;20.35;40.20;99606.94;;;;-48
2021/04/27 10:50:36;;;;;;;2.06;1.50;;;;;;;20.35;40.22;99611.89;;;;-48
2021/04/27 10:53:34;;;;;;;1.79;1.50;;;;;;;20.35;40.14;99609.22;;;;-50
2021/04/27 10:56:33;;;;;;;2.00;1.54;;;;;;;20.36;40.25;99600.03;;;;-50
2021/04/27 10:59:33;;;;;;;2.48;1.38;;;;;;;20.35;40.25;99595.70;;;;-48
2021/04/27 11:02:33;;;;;;;1.59;1.41;;;;;;;20.35;40.27;99601.80;;;;-48
2021/04/27 11:05:33;;;;;;;2.29;1.30;;;;;;;20.36;40.32;99595.38;;;;-50
2021/04/27 11:08:33;;;;;;;1.70;1.41;;;;;;;20.36;40.31;99586.27;;;;-48
2021/04/27 11:11:33;;;;;;;1.49;1.30;;;;;;;20.36;40.32;99582.29;;;;-47
2021/04/27 11:14:34;;;;;;;1.67;1.42;;;;;;;20.37;40.31;99580.08;;;;-54
2021/04/27 11:17:33;;;;;;;1.67;1.45;;;;;;;20.37;40.34;99577.96;;;;-54
2021/04/27 11:20:33;;;;;;;1.87;1.32;;;;;;;20.37;40.38;99573.95;;;;-52
2021/04/27 11:23:33;;;;;;;1.48;1.37;;;;;;;20.37;40.36;99573.63;;;;-52
2021/04/27 11:26:33;;;;;;;1.67;1.41;;;;;;;20.37;40.35;99573.06;;;;-51
2021/04/27 11:29:33;;;;;;;1.71;1.40;;;;;;;20.37;40.43;99565.74;;;;-52
2021/04/27 11:32:33;;;;;;;1.54;1.34;;;;;;;20.37;40.31;99563.86;;;;-51
2021/04/27 11:35:33;;;;;;;1.60;1.41;;;;;;;20.37;40.42;99558.66;;;;-50
2021/04/27 11:38:33;;;;;;;1.64;1.30;;;;;;;20.37;40.33;99556.95;;;;-50
2021/04/27 11:41:33;;;;;;;3.94;1.46;;;;;;;20.37;40.75;99548.41;;;;-60
2021/04/27 11:44:33;;;;;;;2.85;1.37;;;;;;;20.38;40.94;99553.94;;;;-55
2021/04/27 11:47:33;;;;;;;2.89;1.45;;;;;;;20.38;40.18;99553.29;;;;-50
2021/04/27 11:50:33;;;;;;;3.33;1.37;;;;;;;20.40;40.67;99543.84;;;;-53
2021/04/27 11:53:33;;;;;;;2.83;1.47;;;;;;;20.42;40.83;99544.45;;;;-50
2021/04/27 11:56:33;;;;;;;2.11;1.40;;;;;;;20.43;40.96;99548.50;;;;-49
2021/04/27 11:59:33;;;;;;;2.78;1.47;;;;;;;20.45;40.90;99538.56;;;;-48
2021/04/27 12:02:33;;;;;;;2.31;1.32;;;;;;;20.45;40.67;99538.46;;;;-47
2021/04/27 12:05:33;;;;;;;4.11;1.56;;;;;;;20.44;40.53;99536.94;;;;-55
2021/04/27 12:08:33;;;;;;;1.69;1.41;;;;;;;20.44;40.47;99534.33;;;;-56
2021/04/27 12:11:33;;;;;;;1.62;1.30;;;;;;;20.43;40.40;99528.48;;;;-55
2021/04/27 12:14:33;;;;;;;3.09;1.67;;;;;;;20.43;40.46;99524.83;;;;-55
2021/04/27 12:17:33;;;;;;;2.87;1.43;;;;;;;20.43;40.42;99523.13;;;;-55
2021/04/27 12:20:33;;;;;;;1.85;1.30;;;;;;;20.43;40.43;99515.16;;;;-48
2021/04/27 12:23:33;;;;;;;2.09;1.38;;;;;;;20.42;40.32;99513.28;;;;-47
2021/04/27 12:26:33;;;;;;;2.98;1.39;;;;;;;20.41;40.33;99515.40;;;;-55
2021/04/27 12:29:33;;;;;;;1.49;1.31;;;;;;;20.42;40.37;99515.39;;;;-52
2021/04/27 12:32:34;;;;;;;2.04;1.32;;;;;;;20.41;40.36;99504.42;;;;-52
2021/04/27 12:35:33;;;;;;;1.59;1.38;;;;;;;20.41;40.31;99504.50;;;;-52
2021/04/27 12:38:33;;;;;;;2.13;1.33;;;;;;;20.42;40.36;99496.67;;;;-55
2021/04/27 12:41:33;;;;;;;2.28;1.31;;;;;;;20.41;40.31;99494.02;;;;-48
2021/04/27 12:44:33;;;;;;;1.50;1.40;;;;;;;20.40;40.39;99491.99;;;;-48
2021/04/27 12:47:33;;;;;;;2.36;1.39;;;;;;;20.41;40.26;99488.63;;;;-47
2021/04/27 12:50:33;;;;;;;2.59;1.67;;;;;;;20.43;41.15;99481.77;;;;-52
2021/04/27 12:53:33;;;;;;;2.29;1.39;;;;;;;20.44;41.82;99477.38;;;;-46
2021/04/27 12:56:33;;;;;;;3.61;1.50;;;;;;;20.47;42.00;99478.48;;;;-46
2021/04/27 12:59:33;;;;;;;2.84;1.30;;;;;;;20.48;42.08;99475.70;;;;-48
2021/04/27 13:02:33;;;;;;;2.77;1.43;;;;;;;20.50;41.67;99465.25;;;;-51
2021/04/27 13:05:34;;;;;;;1.59;1.43;;;;;;;20.48;41.11;99456.73;;;;-51
2021/04/27 13:08:33;;;;;;;3.20;1.40;;;;;;;20.47;41.03;99460.56;;;;-52
2021/04/27 13:11:33;;;;;;;1.74;1.41;;;;;;;20.47;40.85;99456.33;;;;-51
2021/04/27 13:14:33;;;;;;;2.13;1.41;;;;;;;20.47;40.87;99450.47;;;;-59
2021/04/27 13:17:35;;;;;;;3.12;1.41;;;;;;;20.50;40.92;99443.75;;;;-52
2021/04/27 13:20:33;;;;;;;2.11;1.53;;;;;;;20.51;41.47;99439.28;;;;-52
2021/04/27 13:23:33;;;;;;;3.24;1.50;;;;;;;20.51;40.98;99438.80;;;;-59
2021/04/27 13:26:33;;;;;;;3.69;1.51;;;;;;;20.51;41.21;99425.67;;;;-51
2021/04/27 13:29:33;;;;;;;2.75;1.41;;;;;;;20.53;41.40;99423.05;;;;-47
2021/04/27 13:32:33;;;;;;;4.63;1.60;;;;;;;20.52;40.92;99418.89;;;;-46
2021/04/27 13:35:33;;;;;;;2.12;1.37;;;;;;;20.54;41.24;99415.63;;;;-64
2021/04/27 13:38:33;;;;;;;2.27;1.59;;;;;;;20.48;39.95;99413.27;;;;-59
2021/04/27 13:41:38;;;;;;;5.51;1.67;;;;;;;20.48;40.24;99401.38;;;;-60
2021/04/27 13:44:33;;;;;;;5.88;1.79;;;;;;;20.48;40.17;99399.75;;;;-62
2021/04/27 13:47:33;;;;;;;3.71;1.70;;;;;;;20.50;40.54;99402.64;;;;-62
2021/04/27 13:50:34;;;;;;;3.25;1.51;;;;;;;20.51;40.78;99395.64;;;;-62
2021/04/27 13:53:33;;;;;;;6.55;1.78;;;;;;;20.55;41.05;99397.86;;;;-60
2021/04/27 13:56:33;;;;;;;3.67;1.56;;;;;;;20.56;40.96;99390.51;;;;-51
2021/04/27 13:59:33;;;;;;;3.82;1.70;;;;;;;20.56;41.15;99389.12;;;;-50
2021/04/27 14:02:33;;;;;;;3.75;1.69;;;;;;;20.57;40.79;99382.95;;;;-50
2021/04/27 14:05:33;;;;;;;2.59;1.40;;;;;;;20.55;40.61;99384.52;;;;-50
2021/04/27 14:08:33;;;;;;;4.05;1.67;;;;;;;20.56;40.53;99390.59;;;;-50
2021/04/27 14:11:33;;;;;;;3.33;1.53;;;;;;;20.55;40.53;99379.05;;;;-50
2021/04/27 14:14:33;;;;;;;1.85;1.44;;;;;;;20.54;40.54;99382.16;;;;-50
2021/04/27 14:17:33;;;;;;;2.17;1.47;;;;;;;20.54;40.52;99374.60;;;;-51
2021/04/27 14:20:33;;;;;;;2.03;1.40;;;;;;;20.54;40.56;99372.98;;;;-52
2021/04/27 14:23:33;;;;;;;6.17;1.47;;;;;;;20.49;40.46;99369.72;;;;-50
2021/04/27 14:26:33;;;;;;;2.83;1.67;;;;;;;20.45;39.91;99366.09;;;;-53
2021/04/27 14:29:33;;;;;;;2.52;1.64;;;;;;;20.42;39.76;99370.72;;;;-60
2021/04/27 14:32:33;;;;;;;2.26;1.51;;;;;;;20.41;40.13;99360.97;;;;-60
2021/04/27 14:35:33;;;;;;;2.89;1.65;;;;;;;20.41;40.00;99362.58;;;;-60
2021/04/27 14:38:33;;;;;;;2.37;1.56;;;;;;;20.41;39.81;99359.18;;;;-58
2021/04/27 14:41:33;;;;;;;3.10;1.59;;;;;;;20.42;39.46;99353.70;;;;-58
2021/04/27 14:44:33;;;;;;;2.18;1.47;;;;;;;20.42;39.56;99356.30;;;;-59
2021/04/27 14:47:33;;;;;;;2.13;1.45;;;;;;;20.43;39.79;99348.73;;;;-61
2021/04/27 14:50:33;;;;;;;1.87;1.46;;;;;;;20.43;39.92;99345.95;;;;-61
2021/04/27 14:53:33;;;;;;;1.67;1.50;;;;;;;20.43;39.91;99344.48;;;;-60
2021/04/27 14:56:33;;;;;;;2.71;1.35;;;;;;;20.44;40.02;99343.83;;;;-61
2021/04/27 14:59:33;;;;;;;1.83;1.43;;;;;;;20.45;40.04;99341.62;;;;-59
2021/04/27 15:02:33;;;;;;;1.75;1.40;;;;;;;20.44;40.11;99338.46;;;;-59
2021/04/27 15:05:33;;;;;;;1.59;1.42;;;;;;;20.44;40.12;99344.32;;;;-60
2021/04/27 15:08:33;;;;;;;1.89;1.37;;;;;;;20.44;40.13;99339.11;;;;-61
2021/04/27 15:11:35;;;;;;;1.54;1.40;;;;;;;20.44;40.16;99339.44;;;;-59
2021/04/27 15:14:33;;;;;;;1.62;1.45;;;;;;;20.44;40.19;99332.27;;;;-59
2021/04/27 15:17:33;;;;;;;1.66;1.41;;;;;;;20.45;40.16;99333.08;;;;-59
2021/04/27 15:20:33;;;;;;;1.47;1.35;;;;;;;20.45;40.26;99331.77;;;;-60
2021/04/27 15:23:33;;;;;;;1.81;1.35;;;;;;;20.44;40.30;99326.34;;;;-59
2021/04/27 15:26:33;;;;;;;2.30;1.47;;;;;;;20.44;40.29;99325.12;;;;-59
2021/04/27 15:29:35;;;;;;;5.52;1.90;;;;;;;20.41;40.34;99327.03;;;;-50
2021/04/27 15:32:33;;;;;;;8.87;1.64;;;;;;;20.43;40.18;99320.17;;;;-48
2021/04/27 15:35:33;;;;;;;3.25;1.60;;;;;;;20.42;40.71;99312.78;;;;-47
2021/04/27 15:38:33;;;;;;;3.43;1.50;;;;;;;20.43;40.95;99312.35;;;;-48
2021/04/27 15:41:33;;;;;;;3.92;1.57;;;;;;;20.44;40.97;99311.43;;;;-45
2021/04/27 15:44:33;;;;;;;2.29;1.41;;;;;;;20.44;40.76;99309.97;;;;-48
2021/04/27 15:47:33;;;;;;;2.81;1.49;;;;;;;20.45;40.69;99308.91;;;;-53
2021/04/27 15:50:34;;;;;;;3.34;1.60;;;;;;;20.46;40.84;99306.68;;;;-50
2021/04/27 15:53:33;;;;;;;3.07;1.60;;;;;;;20.46;40.87;99303.04;;;;-51
2021/04/27 15:56:33;;;;;;;2.31;1.61;;;;;;;20.46;40.54;99302.13;;;;-52
2021/04/27 15:59:33;;;;;;;3.35;1.51;;;;;;;20.48;40.63;99300.41;;;;-51
2021/04/27 16:02:33;;;;;;;3.11;1.64;;;;;;;20.50;40.67;99300.92;;;;-56
2021/04/27 16:05:33;;;;;;;2.85;1.56;;;;;;;20.51;40.98;99295.05;;;;-52
2021/04/27 16:08:33;;;;;;;2.57;1.61;;;;;;;20.53;41.06;99294.95;;;;-52
2021/04/27 16:11:33;;;;;;;3.33;1.51;;;;;;;20.53;41.14;99284.86;;;;-54
2021/04/27 16:14:34;;;;;;;2.18;1.40;;;;;;;20.55;41.36;99289.70;;;;-55
2021/04/27 16:17:33;;;;;;;5.77;1.61;;;;;;;20.55;41.37;99285.62;;;;-57
2021/04/27 16:20:33;;;;;;;2.74;1.61;;;;;;;20.57;41.46;99284.77;;;;-54
2021/04/27 16:23:33;;;;;;;2.19;1.44;;;;;;;20.57;41.28;99284.37;;;;-56
2021/04/27 16:26:33;;;;;;;2.03;1.50;;;;;;;20.58;41.43;99281.42;;;;-53
2021/04/27 16:29:33;;;;;;;3.09;1.60;;;;;;;20.59;41.32;99284.71;;;;-56
2021/04/27 16:32:33;;;;;;;2.26;1.56;;;;;;;20.59;41.31;99281.85;;;;-51
2021/04/27 16:35:33;;;;;;;1.77;1.50;;;;;;;20.60;41.39;99286.80;;;;-56
2021/04/27 16:38:33;;;;;;;3.24;1.59;;;;;;;20.60;41.57;99281.66;;;;-51
2021/04/27 16:41:33;;;;;;;3.50;1.62;;;;;;;20.60;41.55;99283.52;;;;-54
2021/04/27 16:44:33;;;;;;;4.81;1.73;;;;;;;20.61;41.09;99277.25;;;;-60
2021/04/27 16:47:33;;;;;;;1.77;1.42;;;;;;;20.60;41.11;99279.87;;;;-60
2021/04/27 16:50:33;;;;;;;1.70;1.52;;;;;;;20.58;40.98;99276.22;;;;-59
2021/04/27 16:53:33;;;;;;;3.55;1.64;;;;;;;20.56;40.83;99273.95;;;;-53
2021/04/27 16:56:33;;;;;;;1.86;1.57;;;;;;;20.55;40.82;99271.31;;;;-54